createdAt,value
2023-01-17T00:02:02.588Z,5.34
2023-01-17T00:04:48.114Z,5.25
2023-01-17T00:07:35.191Z,5.23
2023-01-17T00:10:07.308Z,5.21
2023-01-17T00:12:35.824Z,5.24
2023-01-17T00:15:04.214Z,5.31
2023-01-17T00:17:32.033Z,5.33
2023-01-17T00:20:19.316Z,5.37
2023-01-17T00:23:05.421Z,5.36
2023-01-17T00:25:55.519Z,5.33
2023-01-17T00:28:22.449Z,5.35
2023-01-17T00:30:49.173Z,5.25
2023-01-17T00:33:15.897Z,5.28
2023-01-17T00:35:42.499Z,5.32
2023-01-17T00:38:11.730Z,5.29
2023-01-17T00:40:41.509Z,5.30
2023-01-17T00:43:28.266Z,5.28
2023-01-17T00:46:14.167Z,5.28
2023-01-17T00:49:00.548Z,5.17
2023-01-17T00:51:46.771Z,5.16
2023-01-17T00:54:32.576Z,5.09
2023-01-17T00:57:19.998Z,5.09
2023-01-17T01:00:05.950Z,5.07
2023-01-17T01:02:52.273Z,5.11
2023-01-17T01:05:38.279Z,4.99
2023-01-17T01:08:34.683Z,5.00
2023-01-17T01:11:22.855Z,4.95
2023-01-17T01:14:09.453Z,4.82
2023-01-17T01:16:54.597Z,4.81
2023-01-17T01:19:40.177Z,4.85
2023-01-17T01:22:25.237Z,4.75
2023-01-17T01:25:10.733Z,4.72
2023-01-17T01:27:56.088Z,4.77
2023-01-17T01:30:42.464Z,4.79
2023-01-17T01:33:19.312Z,4.88
2023-01-17T01:35:49.515Z,4.91
2023-01-17T01:38:17.713Z,4.95
2023-01-17T01:40:47.907Z,4.95
2023-01-17T01:43:17.415Z,4.94
2023-01-17T01:45:52.593Z,4.72
2023-01-17T01:48:36.268Z,4.60
2023-01-17T01:51:07.259Z,4.52
2023-01-17T01:53:39.679Z,4.53
2023-01-17T01:56:09.049Z,4.45
2023-01-17T01:58:37.943Z,4.44
2023-01-17T02:01:09.333Z,4.46
2023-01-17T02:03:41.164Z,4.41
2023-01-17T02:06:25.533Z,4.38
2023-01-17T02:08:53.372Z,4.16
2023-01-17T02:11:21.749Z,4.11
2023-01-17T02:13:49.392Z,3.99
2023-01-17T02:16:33.287Z,3.84
2023-01-17T02:19:16.713Z,3.66
2023-01-17T02:21:58.744Z,3.56
2023-01-17T02:24:59.404Z,3.44
2023-01-17T02:27:29.942Z,3.25
2023-01-17T02:33:03.187Z,3.24
2023-01-17T02:35:41.343Z,3.23
2023-01-17T02:38:20.536Z,3.23
2023-01-17T02:40:50.861Z,3.19
2023-01-17T02:43:21.586Z,3.21
2023-01-17T02:45:49.332Z,3.20
2023-01-17T02:48:22.264Z,3.17
2023-01-17T02:51:05.391Z,3.17
2023-01-17T02:53:44.839Z,3.20
2023-01-17T02:56:23.094Z,3.20
2023-01-17T02:59:06.954Z,3.20
2023-01-17T03:01:44.532Z,3.18
2023-01-17T03:04:16.409Z,3.25
2023-01-17T03:06:49.009Z,3.29
2023-01-17T03:09:18.351Z,3.33
2023-01-17T03:11:46.605Z,3.38
2023-01-17T03:14:14.274Z,3.37
2023-01-17T03:16:42.449Z,3.37
2023-01-17T03:19:10.261Z,3.38
2023-01-17T03:21:39.360Z,3.43
2023-01-17T03:24:07.774Z,3.44
2023-01-17T03:26:35.576Z,3.44
2023-01-17T03:29:03.356Z,3.54
2023-01-17T03:31:31.096Z,3.59
2023-01-17T03:33:58.773Z,3.60
2023-01-17T03:36:26.463Z,3.61
2023-01-17T03:38:55.603Z,3.60
2023-01-17T03:41:23.323Z,3.59
2023-01-17T03:43:51.112Z,3.62
2023-01-17T03:46:22.714Z,3.60
2023-01-17T03:48:51.023Z,3.66
2023-01-17T03:51:18.861Z,3.66
2023-01-17T03:53:47.338Z,3.71
2023-01-17T03:56:16.607Z,3.69
2023-01-17T03:58:44.659Z,3.68
2023-01-17T04:01:12.672Z,3.70
2023-01-17T04:03:40.475Z,3.68
2023-01-17T04:06:10.754Z,3.70
2023-01-17T04:08:38.443Z,3.72
2023-01-17T04:11:08.755Z,3.73
2023-01-17T04:13:39.786Z,3.72
2023-01-17T04:16:11.395Z,3.74
2023-01-17T04:18:39.165Z,3.76
2023-01-17T04:21:07.697Z,3.78
2023-01-17T04:23:35.620Z,3.83
2023-01-17T04:26:03.569Z,3.86
2023-01-17T04:28:31.783Z,3.85
2023-01-17T04:31:01.407Z,3.78
2023-01-17T04:33:29.131Z,3.74
2023-01-17T04:35:57.053Z,3.73
2023-01-17T04:38:24.886Z,3.77
2023-01-17T04:40:52.756Z,3.75
2023-01-17T04:43:20.514Z,3.79
2023-01-17T04:45:48.275Z,3.80
2023-01-17T04:48:17.322Z,3.83
2023-01-17T04:50:45.045Z,3.85
2023-01-17T04:53:12.708Z,3.87
2023-01-17T04:55:40.340Z,3.88
2023-01-17T04:58:08.128Z,3.87
2023-01-17T05:00:35.801Z,3.89
2023-01-17T05:03:03.625Z,3.86
2023-01-17T05:05:35.662Z,3.83
2023-01-17T05:08:03.355Z,3.84
2023-01-17T05:10:31.109Z,3.88
2023-01-17T05:13:00.538Z,3.84
2023-01-17T05:15:28.562Z,3.77
2023-01-17T05:17:56.501Z,3.76
2023-01-17T05:20:25.913Z,3.71
2023-01-17T05:22:56.432Z,3.71
2023-01-17T05:25:24.454Z,3.76
2023-01-17T05:27:52.356Z,3.80
2023-01-17T05:30:20.514Z,3.78
2023-01-17T05:32:49.759Z,3.76
2023-01-17T05:35:19.485Z,3.74
2023-01-17T05:37:49.088Z,3.71
2023-01-17T05:40:18.987Z,3.63
2023-01-17T05:42:47.311Z,3.56
2023-01-17T05:45:17.021Z,3.54
2023-01-17T05:47:45.204Z,3.51
2023-01-17T05:50:13.975Z,3.50
2023-01-17T05:52:42.123Z,3.49
2023-01-17T05:55:10.625Z,3.49
2023-01-17T05:57:39.894Z,3.47
2023-01-17T06:00:08.980Z,3.45
2023-01-17T06:02:36.672Z,3.46
2023-01-17T06:05:04.775Z,3.44
2023-01-17T06:07:32.911Z,3.43
2023-01-17T06:10:00.545Z,3.43
2023-01-17T06:12:28.250Z,3.43
2023-01-17T06:14:57.974Z,3.38
2023-01-17T06:17:25.794Z,3.44
2023-01-17T06:19:53.594Z,3.43
2023-01-17T06:22:21.330Z,3.44
2023-01-17T06:24:49.097Z,3.38
2023-01-17T06:27:16.815Z,3.38
2023-01-17T06:29:44.498Z,3.35
2023-01-17T06:32:14.210Z,3.38
2023-01-17T06:34:42.219Z,3.38
2023-01-17T06:37:10.034Z,3.39
2023-01-17T06:39:37.700Z,3.39
2023-01-17T06:42:05.522Z,3.40
2023-01-17T06:44:33.125Z,3.37
2023-01-17T06:47:00.824Z,3.36
2023-01-17T06:49:29.882Z,3.28
2023-01-17T06:51:57.513Z,3.29
2023-01-17T06:54:25.427Z,3.33
2023-01-17T06:56:53.115Z,3.33
2023-01-17T06:59:20.852Z,3.33
2023-01-17T07:01:48.642Z,3.42
2023-01-17T07:04:16.384Z,3.40
2023-01-17T07:06:45.426Z,3.40
2023-01-17T07:09:13.732Z,3.42
2023-01-17T07:11:41.520Z,3.46
2023-01-17T07:14:13.590Z,3.46
2023-01-17T07:16:43.646Z,3.50
2023-01-17T07:19:11.351Z,3.53
2023-01-17T07:21:39.126Z,3.55
2023-01-17T07:24:08.997Z,3.59
2023-01-17T07:26:37.695Z,3.60
2023-01-17T07:29:05.795Z,3.64
2023-01-17T07:31:35.318Z,3.61
2023-01-17T07:34:03.269Z,3.55
2023-01-17T07:36:31.113Z,3.50
2023-01-17T07:38:58.840Z,3.50
2023-01-17T07:41:27.927Z,3.54
2023-01-17T07:43:56.502Z,3.55
2023-01-17T07:46:24.263Z,3.58
2023-01-17T07:48:52.138Z,3.60
2023-01-17T07:51:19.921Z,3.58
2023-01-17T07:53:47.615Z,3.58
2023-01-17T07:56:15.306Z,3.58
2023-01-17T07:58:44.310Z,3.55
2023-01-17T08:01:14.313Z,3.52
2023-01-17T08:03:42.210Z,3.46
2023-01-17T08:06:18.654Z,3.35
2023-01-17T08:08:46.317Z,3.33
2023-01-17T08:11:14.352Z,3.30
2023-01-17T08:13:42.118Z,3.28
2023-01-17T08:16:12.772Z,3.28
2023-01-17T08:18:41.146Z,3.34
2023-01-17T08:21:19.167Z,3.38
2023-01-17T08:23:49.490Z,3.41
2023-01-17T08:26:21.399Z,3.43
2023-01-17T08:28:50.255Z,3.41
2023-01-17T08:31:19.872Z,3.37
2023-01-17T08:33:47.644Z,3.34
2023-01-17T08:36:15.325Z,3.32
2023-01-17T08:38:42.975Z,3.27
2023-01-17T08:41:10.934Z,3.24
2023-01-17T08:43:38.582Z,3.22
2023-01-17T08:46:06.542Z,3.25
2023-01-17T08:48:35.649Z,3.29
2023-01-17T08:51:05.839Z,3.37
2023-01-17T08:53:33.501Z,3.42
2023-01-17T08:56:01.986Z,3.50
2023-01-17T08:58:31.844Z,3.56
2023-01-17T09:01:02.059Z,3.59
2023-01-17T09:03:30.159Z,3.59
2023-01-17T09:06:09.060Z,3.59
2023-01-17T09:08:36.799Z,3.58
2023-01-17T09:11:05.663Z,3.58
2023-01-17T09:13:33.383Z,3.58
2023-01-17T09:16:01.698Z,3.60
2023-01-17T09:18:30.333Z,3.60
2023-01-17T09:20:59.242Z,3.67
2023-01-17T09:23:30.864Z,3.70
2023-01-17T09:26:01.165Z,3.77
2023-01-17T09:28:29.380Z,3.80
2023-01-17T09:30:57.074Z,3.86
2023-01-17T09:33:25.257Z,3.90
2023-01-17T09:35:52.949Z,3.91
2023-01-17T09:38:21.700Z,3.96
2023-01-17T09:40:50.763Z,4.02
2023-01-17T09:43:27.448Z,4.09
2023-01-17T09:45:55.328Z,4.14
2023-01-17T09:48:31.203Z,4.18
2023-01-17T09:51:02.105Z,4.23
2023-01-17T09:53:35.023Z,4.30
2023-01-17T09:56:10.418Z,4.28
2023-01-17T09:58:44.583Z,4.27
2023-01-17T10:01:17.847Z,4.28
2023-01-17T10:04:06.341Z,4.28
2023-01-17T10:06:55.962Z,4.35
2023-01-17T10:09:45.574Z,4.45
2023-01-17T10:12:24.172Z,4.56
2023-01-17T10:15:11.164Z,4.60
2023-01-17T10:17:48.873Z,4.58
2023-01-17T10:20:44.960Z,4.54
2023-01-17T10:23:33.237Z,4.51
2023-01-17T10:26:02.683Z,4.45
2023-01-17T10:28:41.384Z,4.37
2023-01-17T10:31:14.130Z,4.32
2023-01-17T10:33:47.749Z,4.30
2023-01-17T10:36:20.497Z,4.29
2023-01-17T10:38:50.787Z,4.28
2023-01-17T10:41:25.444Z,4.30
2023-01-17T10:44:04.394Z,4.31
2023-01-17T10:46:38.313Z,4.32
2023-01-17T10:49:06.004Z,4.33
2023-01-17T10:52:00.150Z,4.37
2023-01-17T10:54:46.899Z,4.35
2023-01-17T10:57:17.299Z,4.39
2023-01-17T10:59:46.394Z,4.45
2023-01-17T11:02:21.217Z,4.50
2023-01-17T11:04:54.307Z,4.53
2023-01-17T11:07:24.399Z,4.54
2023-01-17T11:09:53.801Z,4.56
2023-01-17T11:12:27.855Z,4.56
2023-01-17T11:15:02.666Z,4.56
2023-01-17T11:17:32.150Z,4.54
2023-01-17T11:20:16.906Z,4.55
2023-01-17T11:22:49.783Z,4.54
2023-01-17T11:25:23.278Z,4.57
2023-01-17T11:27:59.516Z,4.62
2023-01-17T11:30:29.687Z,4.62
2023-01-17T11:32:58.582Z,4.65
2023-01-17T11:35:28.808Z,4.67
2023-01-17T11:38:06.171Z,4.74
2023-01-17T11:40:38.691Z,4.78
2023-01-17T11:43:19.444Z,4.78
2023-01-17T11:46:05.838Z,4.79
2023-01-17T11:48:40.388Z,4.81
2023-01-17T11:51:19.993Z,4.78
2023-01-17T11:53:49.141Z,4.75
2023-01-17T11:56:23.445Z,4.73
2023-01-17T11:58:52.054Z,4.73
2023-01-17T12:01:37.294Z,4.70
2023-01-17T12:04:25.120Z,4.71
2023-01-17T12:07:22.430Z,4.75
2023-01-17T12:10:00.254Z,4.76
2023-01-17T12:12:57.481Z,4.80
2023-01-17T12:15:39.385Z,4.82
2023-01-17T12:18:34.039Z,4.78
2023-01-17T12:21:15.584Z,4.75
2023-01-17T12:23:58.756Z,4.79
2023-01-17T12:26:35.894Z,4.83
2023-01-17T12:29:39.023Z,4.88
2023-01-17T12:32:32.984Z,4.91
2023-01-17T12:35:09.411Z,4.99
2023-01-17T12:37:40.011Z,5.02
2023-01-17T12:40:22.137Z,5.09
2023-01-17T12:42:54.634Z,5.15
2023-01-17T12:45:25.463Z,5.24
2023-01-17T12:47:59.712Z,5.32
2023-01-17T12:50:33.269Z,5.37
2023-01-17T12:53:07.543Z,5.41
2023-01-17T12:55:39.560Z,5.40
2023-01-17T12:58:13.809Z,5.44
2023-01-17T13:00:44.988Z,5.41
2023-01-17T13:03:24.005Z,5.44
2023-01-17T13:05:54.725Z,5.44
2023-01-17T13:08:30.047Z,5.48
2023-01-17T13:11:02.400Z,5.46
2023-01-17T13:13:31.632Z,5.48
2023-01-17T13:16:06.132Z,5.51
2023-01-17T13:18:37.022Z,5.47
2023-01-17T13:21:28.355Z,5.53
2023-01-17T13:24:15.166Z,5.56
2023-01-17T13:26:56.231Z,5.51
2023-01-17T13:29:37.360Z,5.46
2023-01-17T13:32:18.544Z,5.39
2023-01-17T13:35:03.412Z,5.35
2023-01-17T13:37:53.497Z,5.29
2023-01-17T13:40:37.392Z,5.20
2023-01-17T13:43:12.765Z,5.17
2023-01-17T13:45:40.832Z,5.19
2023-01-17T13:48:26.395Z,5.17
2023-01-17T13:50:55.531Z,5.16
2023-01-17T13:53:59.352Z,5.14
2023-01-17T13:56:37.864Z,5.15
2023-01-17T13:59:26.607Z,5.14
2023-01-17T14:01:55.270Z,5.13
2023-01-17T14:04:24.443Z,5.14
2023-01-17T14:07:03.813Z,5.11
2023-01-17T14:09:42.845Z,5.07
2023-01-17T14:12:34.345Z,5.14
2023-01-17T14:15:03.754Z,5.20
2023-01-17T14:17:51.894Z,5.27
2023-01-17T14:20:49.020Z,5.19
2023-01-17T14:23:52.664Z,5.26
2023-01-17T14:26:46.490Z,5.34
2023-01-17T14:29:55.632Z,5.37
2023-01-17T14:32:25.590Z,5.32
2023-01-17T14:34:54.876Z,5.34
2023-01-17T14:37:31.224Z,5.40
2023-01-17T14:39:59.784Z,5.38
2023-01-17T14:42:31.681Z,5.38
2023-01-17T14:45:03.183Z,5.33
2023-01-17T14:47:33.395Z,5.33
2023-01-17T14:50:13.360Z,5.30
2023-01-17T14:52:41.069Z,5.27
2023-01-17T14:55:16.857Z,5.23
2023-01-17T14:57:54.833Z,5.20
2023-01-17T15:00:25.177Z,5.12
2023-01-17T15:02:54.797Z,5.09
2023-01-17T15:05:25.145Z,5.09
2023-01-17T15:07:55.738Z,5.02
2023-01-17T15:10:26.223Z,5.02
2023-01-17T15:12:57.536Z,5.00
2023-01-17T15:15:32.003Z,5.01
2023-01-17T15:18:10.382Z,4.96
2023-01-17T15:20:38.992Z,4.95
2023-01-17T15:23:07.374Z,4.91
2023-01-17T15:25:35.555Z,4.85
2023-01-17T15:28:06.575Z,4.84
2023-01-17T15:30:34.334Z,4.83
2023-01-17T15:33:02.102Z,4.84
2023-01-17T15:35:29.894Z,4.79
2023-01-17T15:37:58.216Z,4.77
2023-01-17T15:40:27.936Z,4.77
2023-01-17T15:42:59.233Z,4.72
2023-01-17T15:45:29.957Z,4.70
2023-01-17T15:47:59.102Z,4.67
2023-01-17T15:50:30.971Z,4.65
2023-01-17T15:53:01.443Z,4.64
2023-01-17T15:55:32.609Z,4.63
2023-01-17T15:58:00.724Z,4.62
2023-01-17T16:00:37.807Z,4.59
2023-01-17T16:03:21.907Z,4.51
2023-01-17T16:05:50.547Z,4.49
2023-01-17T16:08:39.481Z,4.43
2023-01-17T16:11:08.611Z,4.42
2023-01-17T16:13:39.235Z,4.40
2023-01-17T16:16:26.751Z,4.37
2023-01-17T16:19:01.500Z,4.31
2023-01-17T16:21:30.543Z,4.29
2023-01-17T16:24:01.569Z,4.26
2023-01-17T16:26:30.201Z,4.21
2023-01-17T16:28:58.036Z,4.13
2023-01-17T16:31:27.093Z,4.09
2023-01-17T16:33:54.815Z,4.04
2023-01-17T16:36:22.969Z,4.00
2023-01-17T16:38:52.455Z,3.98
2023-01-17T16:41:20.523Z,3.96
2023-01-17T16:44:00.908Z,3.96
2023-01-17T16:46:30.776Z,3.93
2023-01-17T16:49:00.615Z,3.89
2023-01-17T16:51:28.480Z,3.85
2023-01-17T16:53:56.182Z,3.80
2023-01-17T16:56:23.913Z,3.77
2023-01-17T16:58:53.324Z,3.73
2023-01-17T17:01:22.651Z,3.70
2023-01-17T17:03:52.147Z,3.65
2023-01-17T17:06:19.889Z,3.61
2023-01-17T17:08:47.627Z,3.58
2023-01-17T17:11:17.510Z,3.55
2023-01-17T17:13:46.583Z,3.50
2023-01-17T17:16:19.316Z,3.46
2023-01-17T17:18:54.286Z,3.40
2023-01-17T17:21:23.989Z,3.41
2023-01-17T17:23:56.785Z,3.39
2023-01-17T17:26:26.771Z,3.35
2023-01-17T17:28:55.403Z,3.32
2023-01-17T17:31:23.372Z,3.28
2023-01-17T17:33:51.225Z,3.25
2023-01-17T17:36:18.962Z,3.22
2023-01-17T17:38:54.271Z,3.20
2023-01-17T17:41:24.703Z,3.17
2023-01-17T17:43:53.123Z,3.14
2023-01-17T17:46:21.781Z,3.10
2023-01-17T17:48:50.378Z,3.05
2023-01-17T17:51:26.232Z,3.01
2023-01-17T17:53:56.493Z,2.97
2023-01-17T17:56:24.904Z,2.94
2023-01-17T17:58:52.552Z,2.91
2023-01-17T18:01:22.752Z,2.92
2023-01-17T18:03:55.407Z,2.89
2023-01-17T18:06:23.440Z,2.87
2023-01-17T18:08:52.254Z,2.81
2023-01-17T18:11:23.973Z,2.81
2023-01-17T18:13:53.481Z,2.79
2023-01-17T18:16:23.550Z,2.72
2023-01-17T18:18:53.325Z,2.69
2023-01-17T18:21:25.042Z,2.67
2023-01-17T18:23:56.713Z,2.62
2023-01-17T18:26:28.267Z,2.58
2023-01-17T18:28:57.511Z,2.57
2023-01-17T18:31:27.139Z,2.47
2023-01-17T18:33:55.399Z,2.49
2023-01-17T18:36:24.308Z,2.49
2023-01-17T18:38:53.514Z,2.52
2023-01-17T18:41:24.499Z,2.48
2023-01-17T18:43:55.943Z,2.44
2023-01-17T18:46:25.769Z,2.42
2023-01-17T18:48:56.968Z,2.40
2023-01-17T18:51:25.301Z,2.38
2023-01-17T18:53:53.991Z,2.34
2023-01-17T18:56:23.122Z,2.32
2023-01-17T18:58:53.073Z,2.28
2023-01-17T19:01:23.216Z,2.21
2023-01-17T19:03:55.525Z,2.21
2023-01-17T19:06:27.892Z,2.19
2023-01-17T19:08:59.487Z,2.20
2023-01-17T19:11:28.014Z,2.18
2023-01-17T19:13:57.927Z,2.17
2023-01-17T19:16:35.596Z,2.16
2023-01-17T19:19:06.267Z,2.10
2023-01-17T19:21:34.875Z,2.02
2023-01-17T19:24:02.644Z,1.99
2023-01-17T19:26:30.584Z,1.96
2023-01-17T19:29:00.278Z,1.95
2023-01-17T19:31:29.741Z,1.94
2023-01-17T19:33:59.287Z,1.92
2023-01-17T19:36:28.911Z,1.88
2023-01-17T19:39:04.493Z,1.81
2023-01-17T19:41:36.083Z,1.84
2023-01-17T19:44:07.491Z,1.81
2023-01-17T19:46:36.380Z,1.82
2023-01-17T19:49:05.532Z,1.83
2023-01-17T19:51:33.259Z,1.81
2023-01-17T19:54:01.787Z,1.74
2023-01-17T19:56:30.235Z,1.72
2023-01-17T19:59:01.956Z,1.72
2023-01-17T20:01:33.840Z,1.71
2023-01-17T20:04:06.184Z,1.66
2023-01-17T20:06:35.736Z,1.67
2023-01-17T20:09:04.501Z,1.68
2023-01-17T20:11:32.254Z,1.67
2023-01-17T20:14:00.588Z,1.66
2023-01-17T20:16:29.933Z,1.64
2023-01-17T20:19:02.284Z,1.60
2023-01-17T20:21:31.911Z,1.55
2023-01-17T20:24:03.072Z,1.53
2023-01-17T20:26:35.561Z,1.52
2023-01-17T20:29:07.288Z,1.51
2023-01-17T20:31:38.118Z,1.49
2023-01-17T20:34:08.493Z,1.48
2023-01-17T20:36:36.985Z,1.43
2023-01-17T20:39:05.300Z,1.42
2023-01-17T20:41:34.680Z,1.38
2023-01-17T20:44:04.468Z,1.34
2023-01-17T20:46:35.673Z,1.31
2023-01-17T20:49:05.908Z,1.29
2023-01-17T20:51:37.578Z,1.29
2023-01-17T20:54:06.934Z,1.25
2023-01-17T20:56:37.117Z,1.23
2023-01-17T20:59:06.277Z,1.26
2023-01-17T21:01:34.534Z,1.27
2023-01-17T21:04:03.216Z,1.27
2023-01-17T21:06:31.098Z,1.28
2023-01-17T21:09:00.854Z,1.29
2023-01-17T21:11:28.731Z,1.28
2023-01-17T21:13:57.282Z,1.27
2023-01-17T21:16:28.023Z,1.23
2023-01-17T21:18:55.893Z,1.23
2023-01-17T21:21:26.079Z,1.21
2023-01-17T21:23:55.456Z,1.20
2023-01-17T21:26:26.678Z,1.16
2023-01-17T21:28:55.108Z,1.14
2023-01-17T21:31:25.741Z,1.08
2023-01-17T21:33:55.716Z,1.10
2023-01-17T21:36:25.998Z,1.09
2023-01-17T21:38:56.945Z,1.10
2023-01-17T21:41:28.488Z,1.08
2023-01-17T21:43:57.760Z,1.07
2023-01-17T21:46:26.472Z,1.04
2023-01-17T21:48:56.676Z,1.03
2023-01-17T21:51:24.466Z,1.02
2023-01-17T21:53:52.242Z,0.98
2023-01-17T21:56:42.696Z,0.95
2023-01-17T21:59:11.737Z,0.91
2023-01-17T22:01:39.513Z,0.90
2023-01-17T22:04:07.344Z,0.90
2023-01-17T22:06:35.559Z,0.89
2023-01-17T22:09:04.299Z,0.90
2023-01-17T22:11:32.597Z,0.89
2023-01-17T22:14:03.251Z,0.87
2023-01-17T22:16:32.596Z,0.85
2023-01-17T22:19:00.354Z,0.82
2023-01-17T22:21:29.451Z,0.81
2023-01-17T22:23:58.286Z,0.78
2023-01-17T22:26:27.843Z,0.76
2023-01-17T22:28:56.096Z,0.68
2023-01-17T22:31:26.801Z,0.69
2023-01-17T22:33:58.418Z,0.69
2023-01-17T22:36:26.522Z,0.68
2023-01-17T22:38:54.739Z,0.66
2023-01-17T22:41:24.980Z,0.58
2023-01-17T22:43:54.182Z,0.57
2023-01-17T22:46:24.867Z,0.56
2023-01-17T22:48:53.316Z,0.56
2023-01-17T22:51:24.481Z,0.56
2023-01-17T22:53:54.028Z,0.56
2023-01-17T22:56:23.283Z,0.55
2023-01-17T22:58:51.224Z,0.51
2023-01-17T23:01:20.568Z,0.51
2023-01-17T23:03:52.677Z,0.48
2023-01-17T23:06:23.945Z,0.45
2023-01-17T23:08:54.314Z,0.46
2023-01-17T23:11:40.643Z,0.46
2023-01-17T23:14:10.867Z,0.44
2023-01-17T23:16:56.328Z,0.40
2023-01-17T23:19:24.808Z,0.40
2023-01-17T23:22:13.589Z,0.38
2023-01-17T23:24:44.125Z,0.34
2023-01-17T23:27:31.606Z,0.36
2023-01-17T23:29:59.776Z,0.37
2023-01-17T23:32:36.226Z,0.32
2023-01-17T23:35:04.165Z,0.31
2023-01-17T23:37:50.756Z,0.30
2023-01-17T23:40:19.012Z,0.28
2023-01-17T23:43:04.422Z,0.22
2023-01-17T23:45:35.681Z,0.20
2023-01-17T23:48:05.079Z,0.19
2023-01-17T23:50:33.641Z,0.19
2023-01-17T23:53:06.841Z,0.19
2023-01-17T23:55:36.326Z,0.22
2023-01-17T23:58:04.431Z,0.14
